sensor_id;sensor_type;location;lat;lon;timestamp;pressure;altitude;pressure_sealevel;temperature;humidity
80137;BME280;69466;55.948;37.484;2024-01-15T00:01:43;97514.66;;;-6.75;72.93
80137;BME280;69466;55.948;37.484;2024-01-15T00:04:10;97516.63;;;-6.77;72.98
80137;BME280;69466;55.948;37.484;2024-01-15T00:06:36;97499.47;;;-6.89;73.37
80137;BME280;69466;55.948;37.484;2024-01-15T00:09:02;97518.91;;;-6.74;73.43
80137;BME280;69466;55.948;37.484;2024-01-15T00:11:28;97515.63;;;-6.76;73.33
80137;BME280;69466;55.948;37.484;2024-01-15T00:13:54;97508.38;;;-6.74;73.58
80137;BME280;69466;55.948;37.484;2024-01-15T00:16:20;97506.59;;;-6.65;73.34
80137;BME280;69466;55.948;37.484;2024-01-15T00:18:46;97503.63;;;-6.70;72.97
80137;BME280;69466;55.948;37.484;2024-01-15T00:21:12;97510.38;;;-6.67;73.44
80137;BME280;69466;55.948;37.484;2024-01-15T00:23:42;97511.34;;;-6.68;73.63
80137;BME280;69466;55.948;37.484;2024-01-15T00:26:08;97509.06;;;-6.63;73.29
80137;BME280;69466;55.948;37.484;2024-01-15T00:28:36;97504.28;;;-6.68;73.26
80137;BME280;69466;55.948;37.484;2024-01-15T00:31:02;97498.00;;;-6.59;73.36
80137;BME280;69466;55.948;37.484;2024-01-15T00:33:28;97499.03;;;-6.60;73.36
80137;BME280;69466;55.948;37.484;2024-01-15T00:35:54;97495.03;;;-6.64;73.26
80137;BME280;69466;55.948;37.484;2024-01-15T00:38:19;97491.41;;;-6.71;73.48
80137;BME280;69466;55.948;37.484;2024-01-15T00:40:45;97497.69;;;-6.56;73.96
80137;BME280;69466;55.948;37.484;2024-01-15T00:43:11;97492.91;;;-6.60;73.99
80137;BME280;69466;55.948;37.484;2024-01-15T00:45:37;97488.13;;;-6.57;73.65
80137;BME280;69466;55.948;37.484;2024-01-15T00:48:04;97483.50;;;-6.55;73.98
80137;BME280;69466;55.948;37.484;2024-01-15T00:50:30;97480.03;;;-6.63;73.94
80137;BME280;69466;55.948;37.484;2024-01-15T00:52:56;97470.31;;;-6.63;73.99
80137;BME280;69466;55.948;37.484;2024-01-15T00:55:22;97487.97;;;-6.55;73.44
80137;BME280;69466;55.948;37.484;2024-01-15T00:57:49;97490.28;;;-6.52;73.96
80137;BME280;69466;55.948;37.484;2024-01-15T01:00:16;97472.31;;;-6.57;73.87
80137;BME280;69466;55.948;37.484;2024-01-15T01:02:42;97477.59;;;-6.57;73.84
80137;BME280;69466;55.948;37.484;2024-01-15T01:05:09;97473.81;;;-6.46;73.44
80137;BME280;69466;55.948;37.484;2024-01-15T01:07:35;97452.53;;;-6.53;73.47
80137;BME280;69466;55.948;37.484;2024-01-15T01:10:02;97468.53;;;-6.46;73.45
80137;BME280;69466;55.948;37.484;2024-01-15T01:12:29;97472.66;;;-6.52;73.56
80137;BME280;69466;55.948;37.484;2024-01-15T01:14:55;97466.88;;;-6.47;73.85
80137;BME280;69466;55.948;37.484;2024-01-15T01:17:22;97470.97;;;-6.45;73.67
80137;BME280;69466;55.948;37.484;2024-01-15T01:19:49;97462.41;;;-6.39;73.94
80137;BME280;69466;55.948;37.484;2024-01-15T01:22:16;97448.06;;;-6.44;73.75
80137;BME280;69466;55.948;37.484;2024-01-15T01:24:42;97459.13;;;-6.33;73.50
80137;BME280;69466;55.948;37.484;2024-01-15T01:27:08;97448.84;;;-6.28;73.26
80137;BME280;69466;55.948;37.484;2024-01-15T01:29:35;97450.19;;;-6.32;73.54
80137;BME280;69466;55.948;37.484;2024-01-15T01:32:01;97431.09;;;-6.42;73.79
80137;BME280;69466;55.948;37.484;2024-01-15T01:34:27;97421.22;;;-6.48;73.60
80137;BME280;69466;55.948;37.484;2024-01-15T01:36:53;97449.53;;;-6.34;73.72
80137;BME280;69466;55.948;37.484;2024-01-15T01:39:19;97444.28;;;-6.34;73.93
80137;BME280;69466;55.948;37.484;2024-01-15T01:41:45;97442.47;;;-6.33;74.07
80137;BME280;69466;55.948;37.484;2024-01-15T01:44:11;97446.22;;;-6.28;73.98
80137;BME280;69466;55.948;37.484;2024-01-15T01:46:38;97429.28;;;-6.33;73.97
80137;BME280;69466;55.948;37.484;2024-01-15T01:49:07;97434.19;;;-6.30;74.26
80137;BME280;69466;55.948;37.484;2024-01-15T01:51:35;97425.13;;;-6.28;73.82
80137;BME280;69466;55.948;37.484;2024-01-15T01:54:04;97429.38;;;-6.18;74.18
80137;BME280;69466;55.948;37.484;2024-01-15T01:56:30;97431.53;;;-6.22;74.17
80137;BME280;69466;55.948;37.484;2024-01-15T01:58:56;97415.19;;;-6.17;73.89
80137;BME280;69466;55.948;37.484;2024-01-15T02:01:22;97418.31;;;-6.14;74.31
80137;BME280;69466;55.948;37.484;2024-01-15T02:03:48;97414.38;;;-6.18;74.78
80137;BME280;69466;55.948;37.484;2024-01-15T02:06:14;97419.16;;;-6.13;74.45
80137;BME280;69466;55.948;37.484;2024-01-15T02:08:43;97414.84;;;-6.06;74.27
80137;BME280;69466;55.948;37.484;2024-01-15T02:11:09;97409.56;;;-6.06;74.47
80137;BME280;69466;55.948;37.484;2024-01-15T02:13:35;97411.34;;;-5.99;74.10
80137;BME280;69466;55.948;37.484;2024-01-15T02:16:01;97405.25;;;-5.99;74.19
80137;BME280;69466;55.948;37.484;2024-01-15T02:18:27;97407.69;;;-5.90;74.10
80137;BME280;69466;55.948;37.484;2024-01-15T02:21:13;97399.47;;;-5.87;74.33
80137;BME280;69466;55.948;37.484;2024-01-15T02:23:39;97411.28;;;-5.83;73.74
80137;BME280;69466;55.948;37.484;2024-01-15T02:26:05;97408.44;;;-5.81;74.33
80137;BME280;69466;55.948;37.484;2024-01-15T02:28:35;97401.03;;;-5.86;74.23
80137;BME280;69466;55.948;37.484;2024-01-15T02:31:01;97396.59;;;-5.85;74.00
80137;BME280;69466;55.948;37.484;2024-01-15T02:33:27;97405.28;;;-5.76;74.09
80137;BME280;69466;55.948;37.484;2024-01-15T02:35:53;97400.31;;;-5.71;74.25
80137;BME280;69466;55.948;37.484;2024-01-15T02:38:19;97405.09;;;-5.67;74.05
80137;BME280;69466;55.948;37.484;2024-01-15T02:40:47;97405.88;;;-5.58;74.07
80137;BME280;69466;55.948;37.484;2024-01-15T02:43:13;97395.50;;;-5.60;74.19
80137;BME280;69466;55.948;37.484;2024-01-15T02:45:39;97397.31;;;-5.60;74.41
80137;BME280;69466;55.948;37.484;2024-01-15T02:48:06;97389.03;;;-5.57;74.64
80137;BME280;69466;55.948;37.484;2024-01-15T02:50:31;97390.53;;;-5.55;74.25
80137;BME280;69466;55.948;37.484;2024-01-15T02:52:57;97409.44;;;-5.43;74.11
80137;BME280;69466;55.948;37.484;2024-01-15T02:55:23;97388.16;;;-5.50;74.11
80137;BME280;69466;55.948;37.484;2024-01-15T02:57:50;97397.53;;;-5.39;73.80
80137;BME280;69466;55.948;37.484;2024-01-15T03:00:17;97393.53;;;-5.35;74.15
80137;BME280;69466;55.948;37.484;2024-01-15T03:02:44;97397.13;;;-5.28;73.84
80137;BME280;69466;55.948;37.484;2024-01-15T03:05:11;97391.88;;;-5.36;73.67
80137;BME280;69466;55.948;37.484;2024-01-15T03:07:38;97394.19;;;-5.33;73.49
80137;BME280;69466;55.948;37.484;2024-01-15T03:10:07;97395.66;;;-5.30;73.47
80137;BME280;69466;55.948;37.484;2024-01-15T03:12:33;97374.97;;;-5.27;73.37
80137;BME280;69466;55.948;37.484;2024-01-15T03:14:59;97381.69;;;-5.16;73.99
80137;BME280;69466;55.948;37.484;2024-01-15T03:17:25;97398.72;;;-5.19;73.75
80137;BME280;69466;55.948;37.484;2024-01-15T03:19:52;97387.16;;;-5.18;73.78
80137;BME280;69466;55.948;37.484;2024-01-15T03:22:19;97383.69;;;-5.18;73.60
80137;BME280;69466;55.948;37.484;2024-01-15T03:24:45;97382.34;;;-5.14;73.65
80137;BME280;69466;55.948;37.484;2024-01-15T03:27:11;97384.75;;;-5.05;73.62
80137;BME280;69466;55.948;37.484;2024-01-15T03:29:37;97371.41;;;-5.11;74.02
80137;BME280;69466;55.948;37.484;2024-01-15T03:32:03;97371.41;;;-5.11;73.56
80137;BME280;69466;55.948;37.484;2024-01-15T03:34:30;97368.06;;;-5.05;73.77
80137;BME280;69466;55.948;37.484;2024-01-15T03:36:56;97379.88;;;-4.93;73.58
80137;BME280;69466;55.948;37.484;2024-01-15T03:39:22;97380.16;;;-4.88;73.33
80137;BME280;69466;55.948;37.484;2024-01-15T03:41:48;97352.66;;;-5.02;73.19
80137;BME280;69466;55.948;37.484;2024-01-15T03:44:15;97367.47;;;-4.93;73.77
80137;BME280;69466;55.948;37.484;2024-01-15T03:46:41;97381.44;;;-4.84;73.65
80137;BME280;69466;55.948;37.484;2024-01-15T03:49:07;97364.66;;;-4.91;73.79
80137;BME280;69466;55.948;37.484;2024-01-15T03:51:33;97359.47;;;-4.84;74.10
80137;BME280;69466;55.948;37.484;2024-01-15T03:54:00;97363.06;;;-4.77;73.89
80137;BME280;69466;55.948;37.484;2024-01-15T03:56:27;97344.88;;;-4.80;73.89
80137;BME280;69466;55.948;37.484;2024-01-15T03:58:58;97320.41;;;-4.97;73.44
80137;BME280;69466;55.948;37.484;2024-01-15T04:01:28;97354.88;;;-4.68;74.44
80137;BME280;69466;55.948;37.484;2024-01-15T04:03:55;97301.38;;;-4.93;74.11
80137;BME280;69466;55.948;37.484;2024-01-15T04:06:25;97346.19;;;-4.62;73.80
80137;BME280;69466;55.948;37.484;2024-01-15T04:08:50;97348.38;;;-4.65;73.81
80137;BME280;69466;55.948;37.484;2024-01-15T04:11:21;97344.00;;;-4.58;73.53
80137;BME280;69466;55.948;37.484;2024-01-15T04:13:48;97336.84;;;-4.50;73.58
80137;BME280;69466;55.948;37.484;2024-01-15T04:16:15;97303.38;;;-4.80;73.43
80137;BME280;69466;55.948;37.484;2024-01-15T04:18:41;97331.59;;;-4.58;73.89
80137;BME280;69466;55.948;37.484;2024-01-15T04:21:09;97348.31;;;-4.42;73.77
80137;BME280;69466;55.948;37.484;2024-01-15T04:23:35;97332.53;;;-4.51;73.39
80137;BME280;69466;55.948;37.484;2024-01-15T04:26:01;97330.09;;;-4.37;72.95
80137;BME280;69466;55.948;37.484;2024-01-15T04:28:26;97342.13;;;-4.35;73.37
80137;BME280;69466;55.948;37.484;2024-01-15T04:30:52;97342.41;;;-4.30;73.16
80137;BME280;69466;55.948;37.484;2024-01-15T04:33:19;97344.69;;;-4.27;73.27
80137;BME280;69466;55.948;37.484;2024-01-15T04:35:46;97332.84;;;-4.31;73.26
80137;BME280;69466;55.948;37.484;2024-01-15T04:38:12;97343.34;;;-4.23;73.30
80137;BME280;69466;55.948;37.484;2024-01-15T04:40:39;97341.31;;;-4.21;74.24
80137;BME280;69466;55.948;37.484;2024-01-15T04:43:05;97322.41;;;-4.32;74.67
80137;BME280;69466;55.948;37.484;2024-01-15T04:45:31;97326.16;;;-4.27;74.73
80137;BME280;69466;55.948;37.484;2024-01-15T04:47:56;97321.22;;;-4.30;74.78
80137;BME280;69466;55.948;37.484;2024-01-15T04:50:24;97332.91;;;-4.24;74.57
80137;BME280;69466;55.948;37.484;2024-01-15T04:52:52;97332.75;;;-4.23;74.78
80137;BME280;69466;55.948;37.484;2024-01-15T04:55:36;97320.88;;;-4.27;75.50
80137;BME280;69466;55.948;37.484;2024-01-15T04:58:15;97318.56;;;-4.30;74.69
80137;BME280;69466;55.948;37.484;2024-01-15T05:00:41;97334.00;;;-4.19;75.10
80137;BME280;69466;55.948;37.484;2024-01-15T05:03:10;97338.03;;;-4.23;75.32
80137;BME280;69466;55.948;37.484;2024-01-15T05:05:37;97325.78;;;-4.24;75.01
80137;BME280;69466;55.948;37.484;2024-01-15T05:08:04;97316.59;;;-4.28;74.47
80137;BME280;69466;55.948;37.484;2024-01-15T05:15:45;97330.81;;;-4.14;74.78
80137;BME280;69466;55.948;37.484;2024-01-15T05:18:37;97324.69;;;-4.15;75.44
80137;BME280;69466;55.948;37.484;2024-01-15T05:29:41;97310.28;;;-4.27;75.71
80137;BME280;69466;55.948;37.484;2024-01-15T05:32:29;97277.16;;;-4.52;75.63
80137;BME280;69466;55.948;37.484;2024-01-15T05:35:00;97309.81;;;-4.30;75.61
80137;BME280;69466;55.948;37.484;2024-01-15T05:37:29;97291.22;;;-4.37;75.66
80137;BME280;69466;55.948;37.484;2024-01-15T05:39:55;97311.28;;;-4.28;76.14
80137;BME280;69466;55.948;37.484;2024-01-15T05:42:21;97327.91;;;-4.19;75.67
80137;BME280;69466;55.948;37.484;2024-01-15T05:44:47;97323.25;;;-4.32;76.44
80137;BME280;69466;55.948;37.484;2024-01-15T05:47:14;97302.41;;;-4.35;75.51
80137;BME280;69466;55.948;37.484;2024-01-15T05:49:40;97329.28;;;-4.09;76.12
80137;BME280;69466;55.948;37.484;2024-01-15T05:52:10;97335.38;;;-4.08;75.75
80137;BME280;69466;55.948;37.484;2024-01-15T05:54:40;97263.47;;;-4.41;76.00
80137;BME280;69466;55.948;37.484;2024-01-15T05:57:07;97338.38;;;-3.96;75.25
80137;BME280;69466;55.948;37.484;2024-01-15T05:59:34;97312.09;;;-4.13;75.89
80137;BME280;69466;55.948;37.484;2024-01-15T06:02:02;97316.66;;;-4.07;75.77
80137;BME280;69466;55.948;37.484;2024-01-15T06:04:28;97326.59;;;-3.94;75.48
80137;BME280;69466;55.948;37.484;2024-01-15T06:06:54;97330.59;;;-3.83;75.18
80137;BME280;69466;55.948;37.484;2024-01-15T06:09:21;97290.81;;;-4.05;75.59
80137;BME280;69466;55.948;37.484;2024-01-15T06:11:47;97325.94;;;-3.81;75.06
80137;BME280;69466;55.948;37.484;2024-01-15T06:14:13;97327.56;;;-3.80;74.88
80137;BME280;69466;55.948;37.484;2024-01-15T06:16:39;97326.66;;;-3.73;74.97
80137;BME280;69466;55.948;37.484;2024-01-15T06:19:05;97312.75;;;-3.75;75.14
80137;BME280;69466;55.948;37.484;2024-01-15T06:21:31;97322.06;;;-3.64;74.65
80137;BME280;69466;55.948;37.484;2024-01-15T06:23:57;97329.75;;;-3.69;74.82
80137;BME280;69466;55.948;37.484;2024-01-15T06:26:23;97320.72;;;-3.75;74.54
80137;BME280;69466;55.948;37.484;2024-01-15T06:28:49;97334.75;;;-3.60;74.75
80137;BME280;69466;55.948;37.484;2024-01-15T06:31:15;97315.84;;;-3.71;75.19
80137;BME280;69466;55.948;37.484;2024-01-15T06:33:41;97329.06;;;-3.57;74.32
80137;BME280;69466;55.948;37.484;2024-01-15T06:36:08;97311.28;;;-3.63;74.83
80137;BME280;69466;55.948;37.484;2024-01-15T06:38:36;97316.91;;;-3.51;75.14
80137;BME280;69466;55.948;37.484;2024-01-15T06:41:02;97335.44;;;-3.36;74.09
80137;BME280;69466;55.948;37.484;2024-01-15T06:43:29;97311.06;;;-3.46;74.76
80137;BME280;69466;55.948;37.484;2024-01-15T06:45:55;97291.00;;;-3.70;74.82
80137;BME280;69466;55.948;37.484;2024-01-15T06:48:21;97332.13;;;-3.38;74.31
80137;BME280;69466;55.948;37.484;2024-01-15T06:50:47;97330.88;;;-3.42;74.61
80137;BME280;69466;55.948;37.484;2024-01-15T06:53:13;97307.09;;;-3.36;75.26
80137;BME280;69466;55.948;37.484;2024-01-15T06:55:39;97267.25;;;-3.64;75.62
80137;BME280;69466;55.948;37.484;2024-01-15T06:58:05;97317.00;;;-3.23;74.92
80137;BME280;69466;55.948;37.484;2024-01-15T07:00:31;97321.09;;;-3.21;75.28
80137;BME280;69466;55.948;37.484;2024-01-15T07:02:57;97320.59;;;-3.09;75.38
80137;BME280;69466;55.948;37.484;2024-01-15T07:05:23;97294.19;;;-3.39;74.80
80137;BME280;69466;55.948;37.484;2024-01-15T07:07:50;97294.97;;;-3.24;75.05
80137;BME280;69466;55.948;37.484;2024-01-15T07:10:16;97268.47;;;-3.45;74.25
80137;BME280;69466;55.948;37.484;2024-01-15T07:12:43;97292.75;;;-3.20;74.50
80137;BME280;69466;55.948;37.484;2024-01-15T07:15:09;97322.28;;;-3.02;74.55
80137;BME280;69466;55.948;37.484;2024-01-15T07:17:36;97306.59;;;-3.03;74.59
80137;BME280;69466;55.948;37.484;2024-01-15T07:20:08;97299.13;;;-3.15;75.15
80137;BME280;69466;55.948;37.484;2024-01-15T07:22:38;97325.44;;;-2.92;75.00
80137;BME280;69466;55.948;37.484;2024-01-15T07:25:15;97321.59;;;-2.89;75.83
80137;BME280;69466;55.948;37.484;2024-01-15T07:27:42;97313.66;;;-2.89;75.80
80137;BME280;69466;55.948;37.484;2024-01-15T07:30:13;97317.81;;;-2.80;75.53
80137;BME280;69466;55.948;37.484;2024-01-15T07:32:40;97277.84;;;-3.00;74.89
80137;BME280;69466;55.948;37.484;2024-01-15T07:35:06;97314.84;;;-2.64;75.00
80137;BME280;69466;55.948;37.484;2024-01-15T07:37:42;97313.34;;;-2.73;74.87
80137;BME280;69466;55.948;37.484;2024-01-15T07:40:09;97320.13;;;-2.71;75.49
80137;BME280;69466;55.948;37.484;2024-01-15T07:42:37;97303.81;;;-2.67;75.48
80137;BME280;69466;55.948;37.484;2024-01-15T07:45:10;97313.88;;;-2.56;74.77
80137;BME280;69466;55.948;37.484;2024-01-15T07:47:36;97315.00;;;-2.44;74.23
80137;BME280;69466;55.948;37.484;2024-01-15T07:50:03;97317.25;;;-2.41;74.36
80137;BME280;69466;55.948;37.484;2024-01-15T07:52:30;97309.47;;;-2.43;75.01
80137;BME280;69466;55.948;37.484;2024-01-15T07:54:57;97309.97;;;-2.33;74.43
80137;BME280;69466;55.948;37.484;2024-01-15T07:57:25;97310.97;;;-2.34;74.42
80137;BME280;69466;55.948;37.484;2024-01-15T07:59:51;97312.28;;;-2.23;74.24
80137;BME280;69466;55.948;37.484;2024-01-15T08:02:17;97295.50;;;-2.30;74.01
80137;BME280;69466;55.948;37.484;2024-01-15T08:04:43;97311.50;;;-2.17;74.86
80137;BME280;69466;55.948;37.484;2024-01-15T08:07:10;97314.81;;;-2.08;74.05
80137;BME280;69466;55.948;37.484;2024-01-15T08:09:36;97298.00;;;-2.22;73.83
80137;BME280;69466;55.948;37.484;2024-01-15T08:12:02;97309.44;;;-2.15;74.72
80137;BME280;69466;55.948;37.484;2024-01-15T08:14:31;97298.41;;;-2.18;74.47
80137;BME280;69466;55.948;37.484;2024-01-15T08:16:57;97322.78;;;-2.08;74.11
80137;BME280;69466;55.948;37.484;2024-01-15T08:19:23;97300.75;;;-2.02;74.47
80137;BME280;69466;55.948;37.484;2024-01-15T08:21:50;97297.09;;;-1.95;73.71
80137;BME280;69466;55.948;37.484;2024-01-15T08:24:19;97311.88;;;-1.86;73.77
80137;BME280;69466;55.948;37.484;2024-01-15T08:26:48;97312.69;;;-1.85;74.72
80137;BME280;69466;55.948;37.484;2024-01-15T08:29:14;97296.97;;;-1.80;74.27
80137;BME280;69466;55.948;37.484;2024-01-15T08:31:40;97297.16;;;-1.82;74.35
80137;BME280;69466;55.948;37.484;2024-01-15T08:34:06;97299.66;;;-1.67;74.09
80137;BME280;69466;55.948;37.484;2024-01-15T08:36:33;97308.50;;;-1.53;73.78
80137;BME280;69466;55.948;37.484;2024-01-15T08:39:01;97294.59;;;-1.55;73.70
80137;BME280;69466;55.948;37.484;2024-01-15T08:41:27;97302.38;;;-1.54;73.27
80137;BME280;69466;55.948;37.484;2024-01-15T08:43:53;97300.75;;;-1.42;73.08
80137;BME280;69466;55.948;37.484;2024-01-15T08:46:24;97307.97;;;-1.29;72.61
80137;BME280;69466;55.948;37.484;2024-01-15T08:48:50;97316.56;;;-1.27;72.46
80137;BME280;69466;55.948;37.484;2024-01-15T08:51:17;97300.00;;;-1.29;72.35
80137;BME280;69466;55.948;37.484;2024-01-15T08:53:44;97311.66;;;-1.17;72.04
80137;BME280;69466;55.948;37.484;2024-01-15T08:56:10;97290.78;;;-1.33;71.90
80137;BME280;69466;55.948;37.484;2024-01-15T08:58:37;97306.34;;;-1.17;71.83
80137;BME280;69466;55.948;37.484;2024-01-15T09:01:05;97302.91;;;-0.98;71.84
80137;BME280;69466;55.948;37.484;2024-01-15T09:03:40;97324.16;;;-1.04;71.99
80137;BME280;69466;55.948;37.484;2024-01-15T09:06:10;97307.19;;;-1.03;71.36
80137;BME280;69466;55.948;37.484;2024-01-15T09:08:46;97291.41;;;-1.24;71.05
80137;BME280;69466;55.948;37.484;2024-01-15T09:11:21;97300.63;;;-1.07;71.71
80137;BME280;69466;55.948;37.484;2024-01-15T09:13:55;97309.81;;;-1.10;71.71
80137;BME280;69466;55.948;37.484;2024-01-15T09:16:21;97295.72;;;-1.17;71.45
80137;BME280;69466;55.948;37.484;2024-01-15T09:18:48;97302.88;;;-1.17;71.81
80137;BME280;69466;55.948;37.484;2024-01-15T09:21:14;97303.72;;;-1.10;72.90
80137;BME280;69466;55.948;37.484;2024-01-15T09:23:40;97296.97;;;-1.06;72.58
80137;BME280;69466;55.948;37.484;2024-01-15T09:26:08;97297.97;;;-1.14;72.51
80137;BME280;69466;55.948;37.484;2024-01-15T09:28:43;97284.25;;;-1.17;71.46
80137;BME280;69466;55.948;37.484;2024-01-15T09:31:09;97283.22;;;-1.16;71.97
80137;BME280;69466;55.948;37.484;2024-01-15T09:33:35;97291.81;;;-1.14;71.59
80137;BME280;69466;55.948;37.484;2024-01-15T09:36:02;97305.31;;;-1.09;71.92
80137;BME280;69466;55.948;37.484;2024-01-15T09:38:32;97291.41;;;-1.18;72.16
80137;BME280;69466;55.948;37.484;2024-01-15T09:40:58;97293.25;;;-1.25;71.77
80137;BME280;69466;55.948;37.484;2024-01-15T09:43:24;97308.97;;;-1.23;72.25
80137;BME280;69466;55.948;37.484;2024-01-15T09:45:50;97292.84;;;-1.22;71.81
80137;BME280;69466;55.948;37.484;2024-01-15T09:48:17;97291.22;;;-1.16;72.23
80137;BME280;69466;55.948;37.484;2024-01-15T09:50:43;97293.66;;;-1.21;71.81
80137;BME280;69466;55.948;37.484;2024-01-15T09:53:09;97284.84;;;-1.22;71.64
80137;BME280;69466;55.948;37.484;2024-01-15T09:55:36;97308.81;;;-1.09;71.61
80137;BME280;69466;55.948;37.484;2024-01-15T09:58:04;97303.91;;;-1.12;72.12
80137;BME280;69466;55.948;37.484;2024-01-15T10:00:30;97309.66;;;-1.02;71.58
80137;BME280;69466;55.948;37.484;2024-01-15T10:02:59;97306.97;;;-0.95;71.79
80137;BME280;69466;55.948;37.484;2024-01-15T10:05:26;97302.91;;;-0.98;71.25
80137;BME280;69466;55.948;37.484;2024-01-15T10:07:53;97315.59;;;-0.93;72.27
80137;BME280;69466;55.948;37.484;2024-01-15T10:10:20;97309.44;;;-0.87;72.75
80137;BME280;69466;55.948;37.484;2024-01-15T10:12:48;97286.31;;;-1.00;72.44
80137;BME280;69466;55.948;37.484;2024-01-15T10:15:17;97303.09;;;-0.86;71.93
80137;BME280;69466;55.948;37.484;2024-01-15T10:17:43;97290.22;;;-0.89;72.14
80137;BME280;69466;55.948;37.484;2024-01-15T10:20:11;97296.16;;;-0.80;71.96
80137;BME280;69466;55.948;37.484;2024-01-15T10:22:41;97313.16;;;-0.75;72.47
80137;BME280;69466;55.948;37.484;2024-01-15T10:25:15;97312.75;;;-0.78;72.62
80137;BME280;69466;55.948;37.484;2024-01-15T10:27:41;97286.31;;;-0.93;71.97
80137;BME280;69466;55.948;37.484;2024-01-15T10:30:10;97307.22;;;-0.83;72.53
80137;BME280;69466;55.948;37.484;2024-01-15T10:32:36;97300.66;;;-0.81;72.50
80137;BME280;69466;55.948;37.484;2024-01-15T10:35:03;97270.53;;;-0.95;72.21
80137;BME280;69466;55.948;37.484;2024-01-15T10:37:33;97271.16;;;-0.79;72.08
80137;BME280;69466;55.948;37.484;2024-01-15T10:40:02;97271.16;;;-0.79;72.39
80137;BME280;69466;55.948;37.484;2024-01-15T10:42:30;97283.25;;;-0.70;72.52
80137;BME280;69466;55.948;37.484;2024-01-15T10:44:57;97292.25;;;-0.71;71.66
80137;BME280;69466;55.948;37.484;2024-01-15T10:47:23;97289.59;;;-0.71;71.94
80137;BME280;69466;55.948;37.484;2024-01-15T10:49:49;97311.72;;;-0.71;72.19
80137;BME280;69466;55.948;37.484;2024-01-15T10:52:16;97303.53;;;-0.76;72.86
80137;BME280;69466;55.948;37.484;2024-01-15T10:54:42;97298.00;;;-0.81;72.64
80137;BME280;69466;55.948;37.484;2024-01-15T10:57:09;97284.25;;;-0.78;72.47
80137;BME280;69466;55.948;37.484;2024-01-15T10:59:36;97306.41;;;-0.71;72.01
80137;BME280;69466;55.948;37.484;2024-01-15T11:02:02;97305.97;;;-0.61;72.50
80137;BME280;69466;55.948;37.484;2024-01-15T11:04:32;97301.28;;;-0.66;72.40
80137;BME280;69466;55.948;37.484;2024-01-15T11:06:58;97299.22;;;-0.77;72.26
80137;BME280;69466;55.948;37.484;2024-01-15T11:09:24;97290.00;;;-0.68;72.76
80137;BME280;69466;55.948;37.484;2024-01-15T11:11:54;97291.22;;;-0.64;72.39
80137;BME280;69466;55.948;37.484;2024-01-15T11:14:35;97288.78;;;-0.52;72.73
80137;BME280;69466;55.948;37.484;2024-01-15T11:17:01;97296.75;;;-0.52;72.21
80137;BME280;69466;55.948;37.484;2024-01-15T11:19:46;97293.91;;;-0.51;72.40
80137;BME280;69466;55.948;37.484;2024-01-15T11:25:13;97285.09;;;-0.58;72.64
80137;BME280;69466;55.948;37.484;2024-01-15T11:27:46;97291.22;;;-0.57;72.24
80137;BME280;69466;55.948;37.484;2024-01-15T11:30:25;97299.03;;;-0.56;72.60
80137;BME280;69466;55.948;37.484;2024-01-15T11:32:52;97280.56;;;-0.64;72.55
80137;BME280;69466;55.948;37.484;2024-01-15T11:35:22;97294.72;;;-0.57;73.19
80137;BME280;69466;55.948;37.484;2024-01-15T11:43:05;97290.81;;;-0.54;72.82
80137;BME280;69466;55.948;37.484;2024-01-15T11:45:35;97284.88;;;-0.63;72.80
80137;BME280;69466;55.948;37.484;2024-01-15T11:48:31;97281.81;;;-0.60;72.76
80137;BME280;69466;55.948;37.484;2024-01-15T11:51:07;97276.28;;;-0.65;73.09
80137;BME280;69466;55.948;37.484;2024-01-15T11:53:43;97278.13;;;-0.59;72.92
80137;BME280;69466;55.948;37.484;2024-01-15T11:56:17;97275.06;;;-0.56;72.30
80137;BME280;69466;55.948;37.484;2024-01-15T11:58:48;97257.44;;;-0.70;72.21
80137;BME280;69466;55.948;37.484;2024-01-15T12:01:16;97277.72;;;-0.62;72.25
80137;BME280;69466;55.948;37.484;2024-01-15T12:03:44;97255.59;;;-0.76;72.36
80137;BME280;69466;55.948;37.484;2024-01-15T12:06:12;97284.28;;;-0.65;72.29
80137;BME280;69466;55.948;37.484;2024-01-15T12:08:40;97249.66;;;-0.78;72.45
80137;BME280;69466;55.948;37.484;2024-01-15T12:11:11;97276.09;;;-0.70;73.05
80137;BME280;69466;55.948;37.484;2024-01-15T12:13:40;97269.13;;;-0.71;72.48
80137;BME280;69466;55.948;37.484;2024-01-15T12:16:06;97298.81;;;-0.61;72.95
80137;BME280;69466;55.948;37.484;2024-01-15T12:18:32;97263.38;;;-0.74;73.58
80137;BME280;69466;55.948;37.484;2024-01-15T12:20:59;97291.03;;;-0.69;73.74
80137;BME280;69466;55.948;37.484;2024-01-15T12:23:29;97291.66;;;-0.80;74.32
80137;BME280;69466;55.948;37.484;2024-01-15T12:26:03;97264.81;;;-0.92;74.25
80137;BME280;69466;55.948;37.484;2024-01-15T12:28:52;97283.69;;;-0.73;74.92
80137;BME280;69466;55.948;37.484;2024-01-15T12:31:19;97284.88;;;-0.76;75.18
80137;BME280;69466;55.948;37.484;2024-01-15T12:33:45;97284.69;;;-0.81;75.10
80137;BME280;69466;55.948;37.484;2024-01-15T12:36:13;97296.34;;;-0.75;74.76
80137;BME280;69466;55.948;37.484;2024-01-15T12:38:40;97284.28;;;-0.84;74.28
80137;BME280;69466;55.948;37.484;2024-01-15T12:41:11;97282.63;;;-0.85;73.83
80137;BME280;69466;55.948;37.484;2024-01-15T12:43:43;97246.38;;;-1.00;74.12
80137;BME280;69466;55.948;37.484;2024-01-15T12:46:12;97248.44;;;-0.95;73.77
80137;BME280;69466;55.948;37.484;2024-01-15T12:48:39;97250.50;;;-0.97;73.35
80137;BME280;69466;55.948;37.484;2024-01-15T12:51:08;97294.72;;;-0.70;73.63
80137;BME280;69466;55.948;37.484;2024-01-15T12:54:00;97293.28;;;-0.79;73.70
80137;BME280;69466;55.948;37.484;2024-01-15T12:56:32;97287.13;;;-0.86;73.40
80137;BME280;69466;55.948;37.484;2024-01-15T12:59:06;97296.34;;;-0.82;73.85
80137;BME280;69466;55.948;37.484;2024-01-15T13:01:38;97275.47;;;-0.98;74.29
80137;BME280;69466;55.948;37.484;2024-01-15T13:04:04;97258.06;;;-1.07;73.73
80137;BME280;69466;55.948;37.484;2024-01-15T13:06:36;97309.06;;;-0.84;74.24
80137;BME280;69466;55.948;37.484;2024-01-15T13:09:04;97284.47;;;-0.99;73.69
80137;BME280;69466;55.948;37.484;2024-01-15T13:11:37;97297.78;;;-0.93;74.00
80137;BME280;69466;55.948;37.484;2024-01-15T13:14:03;97294.31;;;-0.80;74.20
80137;BME280;69466;55.948;37.484;2024-01-15T13:16:30;97302.69;;;-0.90;74.67